Time;durP1;ratioP1;P1;durP2;ratioP2;P2;SDS_P1;SDS_P2;PMS_P1;PMS_P2;Temp;Humidity;BMP_temperature;BMP_pressure;BME280_temperature;BME280_humidity;BME280_pressure;Samples;Min_cycle;Max_cycle;Signal;HPM_P1;HPM_P2
2022/01/04 00:01:47;;;;;;;;;;;8.40;99.90;;;;;;4976315;28;19920;-50
2022/01/04 00:04:15;;;;;;;;;;;8.30;99.90;;;;;;4976741;28;19912;-50
2022/01/04 00:06:44;;;;;;;;;;;8.30;99.90;;;;;;4976225;28;20218;-50
2022/01/04 00:09:11;;;;;;;;;;;8.30;99.90;;;;;;4978675;28;19937;-49
2022/01/04 00:11:59;;;;;;;;;;;8.30;99.90;;;;;;4978576;28;19914;-50
2022/01/04 00:14:26;;;;;;;;;;;8.30;99.90;;;;;;4978442;28;19997;-49
2022/01/04 00:16:55;;;;;;;;;;;8.30;99.90;;;;;;4979217;28;19964;-49
2022/01/04 00:19:22;;;;;;;;;;;8.30;99.90;;;;;;4979811;28;19906;-50
2022/01/04 00:21:49;;;;;;;;;;;8.30;99.90;;;;;;4979089;28;19910;-48
2022/01/04 00:24:14;;;;;;;;;;;8.30;99.90;;;;;;4978953;28;19914;-48
2022/01/04 00:26:41;;;;;;;;;;;8.30;99.90;;;;;;4977416;28;20238;-50
2022/01/04 00:29:08;;;;;;;;;;;8.30;99.90;;;;;;4977252;28;19913;-50
2022/01/04 00:31:33;;;;;;;;;;;8.30;99.90;;;;;;4977759;28;19914;-49
2022/01/04 00:34:00;;;;;;;;;;;8.30;99.90;;;;;;4979422;28;19975;-48
2022/01/04 00:36:27;;;;;;;;;;;8.30;99.90;;;;;;4977985;28;19910;-49
2022/01/04 00:38:53;;;;;;;;;;;8.20;99.90;;;;;;4977419;28;19942;-54
2022/01/04 00:41:20;;;;;;;;;;;8.30;99.90;;;;;;4957733;28;20315;-50
2022/01/04 00:43:47;;;;;;;;;;;8.30;99.90;;;;;;4940955;29;19917;-52
2022/01/04 00:46:17;;;;;;;;;;;8.30;99.90;;;;;;4940733;29;19911;-50
2022/01/04 00:51:29;;;;;;;;;;;8.30;99.90;;;;;;4968295;28;19960;-48
2022/01/04 00:53:55;;;;;;;;;;;8.30;99.90;;;;;;4961615;28;19941;-51
2022/01/04 00:56:22;;;;;;;;;;;8.30;99.90;;;;;;4960777;28;19941;-52
2022/01/04 00:58:49;;;;;;;;;;;8.30;99.90;;;;;;4978776;28;19937;-50
2022/01/04 01:01:17;;;;;;;;;;;8.30;99.90;;;;;;4968612;28;19965;-53
2022/01/04 01:03:44;;;;;;;;;;;8.30;99.90;;;;;;4943146;29;20271;-50
2022/01/04 01:06:09;;;;;;;;;;;8.20;99.90;;;;;;4942988;29;19920;-48
2022/01/04 01:08:36;;;;;;;;;;;8.20;99.90;;;;;;4959016;29;19997;-50
2022/01/04 01:11:05;;;;;;;;;;;8.20;99.90;;;;;;4943415;29;19965;-48
2022/01/04 01:13:32;;;;;;;;;;;8.20;99.90;;;;;;4949679;28;20363;-52
2022/01/04 01:15:58;;;;;;;;;;;8.10;99.90;;;;;;4961050;28;20263;-49
2022/01/04 01:18:25;;;;;;;;;;;8.20;99.90;;;;;;4939136;29;19922;-49
2022/01/04 01:20:52;;;;;;;;;;;8.20;99.90;;;;;;4942428;29;19917;-48
2022/01/04 01:23:19;;;;;;;;;;;8.20;99.90;;;;;;4941040;29;19961;-49
2022/01/04 01:25:47;;;;;;;;;;;8.20;99.90;;;;;;4941698;29;19911;-50
2022/01/04 01:28:14;;;;;;;;;;;8.20;99.90;;;;;;4959359;28;20391;-48
2022/01/04 01:30:42;;;;;;;;;;;8.20;99.90;;;;;;4978602;28;19910;-51
2022/01/04 01:33:08;;;;;;;;;;;8.20;99.90;;;;;;4945689;29;20230;-49
2022/01/04 01:35:35;;;;;;;;;;;8.20;99.90;;;;;;4942847;29;20198;-50
2022/01/04 01:38:01;;;;;;;;;;;8.20;99.90;;;;;;4957894;29;19911;-48
2022/01/04 01:40:26;;;;;;;;;;;8.20;99.90;;;;;;4946973;28;20008;-50
2022/01/04 01:42:52;;;;;;;;;;;8.20;99.90;;;;;;4975727;28;20227;-48
2022/01/04 01:45:17;;;;;;;;;;;8.20;99.90;;;;;;4975607;28;19906;-48
2022/01/04 01:47:43;;;;;;;;;;;8.20;99.90;;;;;;4978230;28;20263;-53
2022/01/04 01:50:09;;;;;;;;;;;8.20;99.90;;;;;;4978919;28;19910;-48
2022/01/04 01:52:35;;;;;;;;;;;8.20;99.90;;;;;;4978778;28;20016;-51
2022/01/04 01:55:00;;;;;;;;;;;8.20;99.90;;;;;;4978881;28;19976;-48
2022/01/04 01:57:26;;;;;;;;;;;8.20;99.90;;;;;;4978272;28;19910;-51
2022/01/04 01:59:52;;;;;;;;;;;8.20;99.90;;;;;;4978058;28;19929;-48
2022/01/04 02:02:18;;;;;;;;;;;8.20;99.90;;;;;;4977319;28;19910;-49
2022/01/04 02:04:43;;;;;;;;;;;8.20;99.90;;;;;;4976498;28;19910;-52
2022/01/04 02:07:10;;;;;;;;;;;8.20;99.90;;;;;;4977329;28;19968;-52
2022/01/04 02:09:39;;;;;;;;;;;8.20;99.90;;;;;;4977007;28;19906;-51
2022/01/04 02:12:05;;;;;;;;;;;8.20;99.90;;;;;;4977311;28;19953;-48
2022/01/04 02:14:30;;;;;;;;;;;8.20;99.90;;;;;;4977300;28;20346;-48
2022/01/04 02:16:56;;;;;;;;;;;8.30;99.90;;;;;;4977055;28;19909;-50
2022/01/04 02:19:21;;;;;;;;;;;8.20;99.90;;;;;;4981786;28;19969;-48
2022/01/04 02:21:46;;;;;;;;;;;8.20;99.90;;;;;;4980958;28;19918;-51
2022/01/04 02:24:12;;;;;;;;;;;8.20;99.90;;;;;;4981188;28;19924;-48
2022/01/04 02:26:39;;;;;;;;;;;8.20;99.90;;;;;;4981352;28;20246;-50
2022/01/04 02:29:07;;;;;;;;;;;8.20;99.90;;;;;;4981621;28;20443;-49
2022/01/04 02:31:33;;;;;;;;;;;8.20;99.90;;;;;;4981446;28;19964;-49
2022/01/04 02:33:59;;;;;;;;;;;8.20;99.90;;;;;;4979935;28;20353;-48
2022/01/04 02:36:24;;;;;;;;;;;8.20;99.90;;;;;;4980268;28;19936;-50
2022/01/04 02:38:53;;;;;;;;;;;8.20;99.90;;;;;;4980987;28;19905;-48
2022/01/04 02:41:18;;;;;;;;;;;8.20;99.90;;;;;;4981433;28;19918;-48
2022/01/04 02:43:44;;;;;;;;;;;8.20;99.90;;;;;;4981468;28;19924;-49
2022/01/04 02:46:09;;;;;;;;;;;8.20;99.90;;;;;;4981066;28;19921;-50
2022/01/04 02:48:42;;;;;;;;;;;8.20;99.90;;;;;;4981280;28;19918;-47
2022/01/04 02:51:08;;;;;;;;;;;8.20;99.90;;;;;;4981953;28;19918;-47
2022/01/04 02:53:34;;;;;;;;;;;8.20;99.90;;;;;;4981966;28;19950;-49
2022/01/04 02:55:59;;;;;;;;;;;8.30;99.90;;;;;;4981242;28;19917;-47
2022/01/04 02:58:24;;;;;;;;;;;8.30;99.90;;;;;;4980253;28;20448;-46
2022/01/04 03:00:50;;;;;;;;;;;8.20;99.90;;;;;;4980412;28;19910;-47
2022/01/04 03:03:15;;;;;;;;;;;8.20;99.90;;;;;;4980977;28;20097;-48
2022/01/04 03:05:41;;;;;;;;;;;8.20;99.90;;;;;;4981900;28;19997;-46
2022/01/04 03:08:06;;;;;;;;;;;8.20;99.90;;;;;;4982044;28;19906;-48
2022/01/04 03:10:32;;;;;;;;;;;8.30;99.90;;;;;;4981229;28;19997;-46
2022/01/04 03:12:58;;;;;;;;;;;8.30;99.90;;;;;;4981064;28;19910;-47
2022/01/04 03:15:23;;;;;;;;;;;8.20;99.90;;;;;;4980209;28;19906;-47
2022/01/04 03:17:49;;;;;;;;;;;8.20;99.90;;;;;;4981222;28;19906;-47
2022/01/04 03:20:14;;;;;;;;;;;8.20;99.90;;;;;;4980264;28;20469;-46
2022/01/04 03:22:39;;;;;;;;;;;8.20;99.90;;;;;;4979550;28;19914;-48
2022/01/04 03:25:05;;;;;;;;;;;8.20;99.90;;;;;;4980253;28;19920;-51
2022/01/04 03:27:31;;;;;;;;;;;8.20;99.90;;;;;;4980522;28;19950;-47
2022/01/04 03:29:56;;;;;;;;;;;8.20;99.90;;;;;;4979862;28;20294;-47
2022/01/04 03:32:21;;;;;;;;;;;8.20;99.90;;;;;;4981270;28;19992;-50
2022/01/04 03:34:47;;;;;;;;;;;8.20;99.90;;;;;;4980055;28;19921;-49
2022/01/04 03:37:13;;;;;;;;;;;8.20;99.90;;;;;;4979535;28;19914;-46
2022/01/04 03:39:38;;;;;;;;;;;8.20;99.90;;;;;;4980409;28;20178;-48
2022/01/04 03:42:04;;;;;;;;;;;8.20;99.90;;;;;;4978919;28;20275;-48
2022/01/04 03:44:29;;;;;;;;;;;8.30;99.90;;;;;;4960181;28;19921;-46
2022/01/04 03:46:55;;;;;;;;;;;8.30;99.90;;;;;;4960548;28;19918;-48
2022/01/04 03:49:21;;;;;;;;;;;8.30;99.90;;;;;;4962586;28;19910;-46
2022/01/04 03:51:46;;;;;;;;;;;8.20;99.90;;;;;;4977092;28;19924;-49
2022/01/04 03:54:12;;;;;;;;;;;8.20;99.90;;;;;;4963099;28;20027;-46
2022/01/04 03:56:37;;;;;;;;;;;8.20;99.90;;;;;;4963123;28;19953;-47
2022/01/04 03:59:03;;;;;;;;;;;8.20;99.90;;;;;;4981407;28;19906;-49
2022/01/04 04:01:29;;;;;;;;;;;8.20;99.90;;;;;;4955423;29;19910;-47
2022/01/04 04:03:55;;;;;;;;;;;8.20;99.90;;;;;;4974985;28;20194;-50
2022/01/04 04:06:20;;;;;;;;;;;8.20;99.90;;;;;;4980441;28;19918;-46
2022/01/04 04:08:45;;;;;;;;;;;8.20;99.90;;;;;;4960788;28;19933;-53
2022/01/04 04:11:12;;;;;;;;;;;8.20;99.90;;;;;;4963105;28;19906;-47
2022/01/04 04:13:37;;;;;;;;;;;8.10;99.90;;;;;;4960542;28;19913;-47
2022/01/04 04:16:03;;;;;;;;;;;8.20;99.90;;;;;;4980244;28;19906;-50
2022/01/04 04:18:28;;;;;;;;;;;8.20;99.90;;;;;;4962998;28;19989;-50
2022/01/04 04:20:54;;;;;;;;;;;8.20;99.90;;;;;;4961051;28;20199;-46
2022/01/04 04:23:19;;;;;;;;;;;8.10;99.90;;;;;;4979590;28;20347;-47
2022/01/04 04:25:46;;;;;;;;;;;8.10;99.90;;;;;;4963253;28;19913;-46
2022/01/04 04:28:12;;;;;;;;;;;8.20;99.90;;;;;;4963088;28;19913;-47
2022/01/04 04:30:37;;;;;;;;;;;8.20;99.90;;;;;;4961672;28;19906;-47
2022/01/04 04:33:03;;;;;;;;;;;8.20;99.90;;;;;;4979576;28;19922;-49
2022/01/04 04:35:30;;;;;;;;;;;8.20;99.90;;;;;;4957382;28;20493;-46
2022/01/04 04:37:57;;;;;;;;;;;8.20;99.90;;;;;;4978135;28;19947;-47
2022/01/04 04:40:22;;;;;;;;;;;8.10;99.90;;;;;;4960373;28;20301;-49
2022/01/04 04:42:47;;;;;;;;;;;8.20;99.90;;;;;;4976851;28;19917;-50
2022/01/04 04:45:13;;;;;;;;;;;8.20;99.90;;;;;;4978421;28;19913;-51
2022/01/04 04:47:38;;;;;;;;;;;8.20;99.90;;;;;;4978164;28;19913;-48
2022/01/04 04:50:04;;;;;;;;;;;8.10;99.90;;;;;;4978738;28;19906;-45
2022/01/04 04:52:29;;;;;;;;;;;8.20;99.90;;;;;;4976781;28;19921;-46
2022/01/04 04:54:55;;;;;;;;;;;8.10;99.90;;;;;;4977952;28;19906;-46
2022/01/04 04:57:20;;;;;;;;;;;8.20;99.90;;;;;;4977856;28;19913;-48
2022/01/04 04:59:46;;;;;;;;;;;8.10;99.90;;;;;;4978641;28;20401;-47
2022/01/04 05:02:11;;;;;;;;;;;8.10;99.90;;;;;;4977188;28;20281;-48
2022/01/04 05:04:37;;;;;;;;;;;8.10;99.90;;;;;;4977842;28;19914;-51
2022/01/04 05:07:02;;;;;;;;;;;8.20;99.90;;;;;;4977294;28;19910;-52
2022/01/04 05:09:28;;;;;;;;;;;8.20;99.90;;;;;;4977608;28;20247;-53
2022/01/04 05:11:54;;;;;;;;;;;8.20;99.90;;;;;;4978007;28;19906;-52
2022/01/04 05:14:21;;;;;;;;;;;8.10;99.90;;;;;;4977675;28;19914;-51
2022/01/04 05:16:46;;;;;;;;;;;8.10;99.90;;;;;;4977065;28;19957;-48
2022/01/04 05:19:12;;;;;;;;;;;8.20;99.90;;;;;;4976856;28;20016;-46
2022/01/04 05:21:38;;;;;;;;;;;8.20;99.90;;;;;;4976963;28;20476;-47
2022/01/04 05:24:03;;;;;;;;;;;8.20;99.90;;;;;;4976469;28;19965;-48
2022/01/04 05:26:29;;;;;;;;;;;8.20;99.90;;;;;;4976184;28;19920;-47
2022/01/04 05:28:54;;;;;;;;;;;8.20;99.90;;;;;;4976805;28;20481;-51
2022/01/04 05:31:20;;;;;;;;;;;8.20;99.90;;;;;;4976170;28;19909;-50
2022/01/04 05:33:45;;;;;;;;;;;8.20;99.90;;;;;;4977680;28;19921;-48
2022/01/04 05:36:11;;;;;;;;;;;8.10;99.90;;;;;;4977541;28;19925;-51
2022/01/04 05:38:36;;;;;;;;;;;8.10;99.90;;;;;;4978616;28;19906;-46
2022/01/04 05:41:02;;;;;;;;;;;8.10;99.90;;;;;;4977354;28;19918;-48
2022/01/04 05:43:27;;;;;;;;;;;8.10;99.90;;;;;;4977908;28;20056;-46
2022/01/04 05:45:53;;;;;;;;;;;8.10;99.90;;;;;;4977153;28;19949;-50
2022/01/04 05:48:20;;;;;;;;;;;8.10;99.90;;;;;;4976555;28;19996;-49
2022/01/04 05:50:46;;;;;;;;;;;8.10;99.90;;;;;;4977419;28;19914;-48
2022/01/04 05:53:11;;;;;;;;;;;8.00;99.90;;;;;;4975932;28;19916;-47
2022/01/04 05:55:37;;;;;;;;;;;8.00;99.90;;;;;;4974098;28;20018;-49
2022/01/04 05:58:02;;;;;;;;;;;8.00;99.90;;;;;;4973327;28;19976;-52
2022/01/04 06:00:27;;;;;;;;;;;8.00;99.90;;;;;;4973848;28;19989;-50
2022/01/04 06:02:53;;;;;;;;;;;8.00;99.90;;;;;;4972958;28;20202;-51
2022/01/04 06:05:19;;;;;;;;;;;8.00;99.90;;;;;;4973101;28;19969;-48
2022/01/04 06:07:44;;;;;;;;;;;8.00;99.90;;;;;;4973275;28;19918;-51
2022/01/04 06:10:11;;;;;;;;;;;8.00;99.90;;;;;;4972848;28;19910;-51
2022/01/04 06:15:09;;;;;;;;;;;8.00;99.90;;;;;;4975954;28;19917;-52
2022/01/04 06:17:35;;;;;;;;;;;7.90;99.90;;;;;;4976691;28;20214;-46
2022/01/04 06:20:03;;;;;;;;;;;7.90;99.90;;;;;;4977462;28;19917;-47
2022/01/04 06:22:28;;;;;;;;;;;8.00;99.90;;;;;;4977262;28;20485;-49
2022/01/04 06:24:54;;;;;;;;;;;7.90;99.90;;;;;;4976507;28;19906;-51
2022/01/04 06:27:20;;;;;;;;;;;7.90;99.90;;;;;;4977736;28;20279;-49
2022/01/04 06:29:46;;;;;;;;;;;8.00;99.90;;;;;;4976420;28;19941;-53
2022/01/04 06:32:12;;;;;;;;;;;7.90;99.90;;;;;;4976443;28;20451;-49
2022/01/04 06:34:38;;;;;;;;;;;7.90;99.90;;;;;;4976651;28;19910;-48
2022/01/04 06:37:04;;;;;;;;;;;7.90;99.90;;;;;;4976382;28;20064;-48
2022/01/04 06:39:29;;;;;;;;;;;8.00;99.90;;;;;;4974937;28;20001;-50
2022/01/04 06:41:55;;;;;;;;;;;8.00;99.90;;;;;;4974482;28;20226;-49
2022/01/04 06:44:24;;;;;;;;;;;7.90;99.90;;;;;;4967196;28;20336;-50
2022/01/04 06:46:49;;;;;;;;;;;8.00;99.90;;;;;;4938470;29;19944;-51
2022/01/04 06:49:16;;;;;;;;;;;8.00;99.90;;;;;;4938364;29;20003;-48
2022/01/04 06:51:43;;;;;;;;;;;8.00;99.90;;;;;;4955847;28;20457;-50
2022/01/04 06:54:09;;;;;;;;;;;8.00;99.90;;;;;;4939157;29;20220;-48
2022/01/04 06:56:34;;;;;;;;;;;8.00;99.90;;;;;;4940545;28;19913;-50
2022/01/04 06:59:00;;;;;;;;;;;8.00;99.90;;;;;;4957141;28;19910;-48
2022/01/04 07:01:25;;;;;;;;;;;8.00;99.90;;;;;;4958020;28;20007;-50
2022/01/04 07:03:51;;;;;;;;;;;8.00;99.90;;;;;;4959340;28;19914;-48
2022/01/04 07:06:17;;;;;;;;;;;8.00;99.90;;;;;;4962859;28;19984;-48
2022/01/04 07:08:42;;;;;;;;;;;8.00;99.90;;;;;;4950289;29;19933;-48
2022/01/04 07:11:08;;;;;;;;;;;8.00;99.90;;;;;;4954362;28;20202;-48
2022/01/04 07:13:33;;;;;;;;;;;8.00;99.90;;;;;;4944565;29;19914;-51
2022/01/04 07:16:00;;;;;;;;;;;8.00;99.90;;;;;;4952143;28;19996;-50
2022/01/04 07:18:25;;;;;;;;;;;8.10;99.90;;;;;;4959757;28;20016;-49
2022/01/04 07:20:52;;;;;;;;;;;8.00;99.90;;;;;;4977011;28;19965;-51
2022/01/04 07:23:22;;;;;;;;;;;8.00;99.90;;;;;;4957552;28;19920;-50
2022/01/04 07:25:47;;;;;;;;;;;8.00;99.90;;;;;;4952042;29;19910;-48
2022/01/04 07:28:13;;;;;;;;;;;8.00;99.90;;;;;;4971981;28;19916;-47
2022/01/04 07:30:39;;;;;;;;;;;8.00;99.90;;;;;;4950923;28;19914;-50
2022/01/04 07:33:04;;;;;;;;;;;8.00;99.90;;;;;;4939713;29;20215;-49
2022/01/04 07:35:30;;;;;;;;;;;8.00;99.90;;;;;;4941216;29;19910;-52
2022/01/04 07:37:55;;;;;;;;;;;8.00;99.90;;;;;;4944256;28;19914;-51
2022/01/04 07:40:21;;;;;;;;;;;8.00;99.90;;;;;;4947080;28;20000;-49
2022/01/04 07:42:47;;;;;;;;;;;8.00;99.90;;;;;;4974982;28;19914;-49
2022/01/04 07:45:12;;;;;;;;;;;8.00;99.90;;;;;;4976377;28;20207;-46
2022/01/04 07:47:38;;;;;;;;;;;8.00;99.90;;;;;;4977354;28;19910;-46
2022/01/04 07:50:04;;;;;;;;;;;8.10;99.90;;;;;;4977284;28;19909;-50
2022/01/04 07:52:29;;;;;;;;;;;8.00;99.90;;;;;;4977894;28;19991;-50
2022/01/04 07:54:55;;;;;;;;;;;8.10;99.90;;;;;;4975439;28;19914;-46
2022/01/04 07:57:20;;;;;;;;;;;8.00;99.90;;;;;;4973845;28;20001;-47
2022/01/04 07:59:46;;;;;;;;;;;8.00;99.90;;;;;;4972538;28;19981;-51
2022/01/04 08:02:11;;;;;;;;;;;8.10;99.90;;;;;;4972761;28;20449;-51
2022/01/04 08:04:37;;;;;;;;;;;8.10;99.90;;;;;;4974108;28;20404;-48
2022/01/04 08:07:02;;;;;;;;;;;8.00;99.90;;;;;;4973601;28;19910;-48
2022/01/04 08:09:29;;;;;;;;;;;8.10;99.90;;;;;;4973755;28;19940;-50
2022/01/04 08:11:54;;;;;;;;;;;8.10;99.90;;;;;;4973480;28;19918;-51
2022/01/04 08:14:20;;;;;;;;;;;8.10;99.90;;;;;;4973638;28;19965;-49
2022/01/04 08:16:45;;;;;;;;;;;8.10;99.90;;;;;;4971455;28;19980;-48
2022/01/04 08:19:11;;;;;;;;;;;8.10;99.90;;;;;;4973581;28;19922;-52
2022/01/04 08:21:36;;;;;;;;;;;8.10;99.90;;;;;;4972574;28;19981;-47
2022/01/04 08:24:02;;;;;;;;;;;8.10;99.90;;;;;;4971811;28;20289;-51
2022/01/04 08:26:28;;;;;;;;;;;8.10;99.90;;;;;;4972077;28;19921;-48
2022/01/04 08:28:54;;;;;;;;;;;8.10;99.90;;;;;;4973097;28;19928;-50
2022/01/04 08:31:19;;;;;;;;;;;8.10;99.90;;;;;;4973204;28;20005;-51
2022/01/04 08:33:45;;;;;;;;;;;8.10;99.90;;;;;;4971680;28;19910;-48
2022/01/04 08:36:11;;;;;;;;;;;8.10;99.90;;;;;;4971754;28;19914;-49
2022/01/04 08:38:39;;;;;;;;;;;8.10;99.90;;;;;;4972465;28;19910;-51
2022/01/04 08:41:04;;;;;;;;;;;8.10;99.90;;;;;;4961350;28;20005;-47
2022/01/04 08:43:30;;;;;;;;;;;8.10;99.90;;;;;;4931254;29;20017;-47
2022/01/04 08:45:56;;;;;;;;;;;8.10;99.90;;;;;;4930621;29;19906;-51
2022/01/04 08:48:21;;;;;;;;;;;8.10;99.90;;;;;;4931733;29;20175;-49
2022/01/04 08:50:48;;;;;;;;;;;8.10;99.90;;;;;;4932856;29;19918;-49
2022/01/04 08:53:14;;;;;;;;;;;8.20;99.90;;;;;;4934215;29;19964;-48
2022/01/04 08:55:40;;;;;;;;;;;8.20;99.90;;;;;;4933645;29;19949;-48
2022/01/04 08:58:06;;;;;;;;;;;8.10;99.90;;;;;;4932773;29;19969;-47
2022/01/04 09:00:31;;;;;;;;;;;8.10;99.90;;;;;;4933643;29;19958;-52
2022/01/04 09:02:59;;;;;;;;;;;8.10;99.90;;;;;;4950299;29;19918;-50
2022/01/04 09:05:25;;;;;;;;;;;8.10;99.90;;;;;;4932356;29;19969;-47
2022/01/04 09:07:50;;;;;;;;;;;8.10;99.90;;;;;;4948199;29;19910;-50
2022/01/04 09:10:16;;;;;;;;;;;8.10;99.90;;;;;;4930615;29;19906;-48
2022/01/04 09:12:52;;;;;;;;;;;8.10;99.90;;;;;;4931101;29;20013;-49
2022/01/04 09:20:47;;;;;;;;;;;8.10;99.90;;;;;;4946945;29;20169;-48
2022/01/04 09:23:15;;;;;;;;;;;8.00;99.90;;;;;;4928253;29;20029;-49
2022/01/04 09:25:41;;;;;;;;;;;8.00;99.90;;;;;;4929466;28;19906;-49
2022/01/04 09:28:07;;;;;;;;;;;8.10;99.90;;;;;;4930337;29;19907;-50
2022/01/04 09:30:32;;;;;;;;;;;8.10;99.90;;;;;;4930620;29;20065;-49
2022/01/04 09:32:59;;;;;;;;;;;8.10;99.90;;;;;;4930659;29;19906;-48
2022/01/04 09:35:25;;;;;;;;;;;8.10;99.90;;;;;;4930983;29;19910;-49
2022/01/04 09:37:50;;;;;;;;;;;8.10;99.90;;;;;;4929907;29;19917;-46
2022/01/04 09:40:16;;;;;;;;;;;8.10;99.90;;;;;;4930965;28;19914;-51
2022/01/04 09:42:42;;;;;;;;;;;8.20;99.90;;;;;;4963093;28;20140;-48
2022/01/04 09:45:07;;;;;;;;;;;8.20;99.90;;;;;;4962218;28;20015;-47
2022/01/04 09:47:33;;;;;;;;;;;8.20;99.90;;;;;;4964353;28;20198;-46
2022/01/04 09:49:58;;;;;;;;;;;8.20;99.90;;;;;;4963683;28;19914;-49
2022/01/04 09:52:24;;;;;;;;;;;8.20;99.90;;;;;;4963472;28;19906;-52
2022/01/04 09:54:51;;;;;;;;;;;8.20;99.90;;;;;;4964585;28;20014;-49
2022/01/04 09:57:17;;;;;;;;;;;8.20;99.90;;;;;;4966970;28;20383;-51
2022/01/04 09:59:42;;;;;;;;;;;8.20;99.90;;;;;;4966733;28;19906;-51
2022/01/04 10:02:14;;;;;;;;;;;8.20;99.90;;;;;;4970520;28;20270;-47
2022/01/04 10:04:39;;;;;;;;;;;8.20;99.90;;;;;;4972542;28;19914;-48
2022/01/04 10:07:06;;;;;;;;;;;8.30;99.90;;;;;;4974592;28;19929;-50
2022/01/04 10:09:35;;;;;;;;;;;8.30;99.90;;;;;;4973890;28;19942;-48
2022/01/04 10:12:01;;;;;;;23.30;13.70;;;8.30;99.90;;;;;;4973471;28;20228;-49
2022/01/04 10:14:39;;;;;;;27.67;18.13;;;8.30;99.90;;;;;;4973031;28;20427;-48
2022/01/04 10:17:09;;;;;;;26.63;17.73;;;8.50;99.90;;;;;;4972182;28;20396;-46
2022/01/04 10:19:40;;;;;;;21.20;16.27;;;8.50;99.90;;;;;;4973425;28;20490;-49
2022/01/04 10:22:16;;;;;;;22.67;16.20;;;8.40;99.90;;;;;;4970925;28;20443;-50
2022/01/04 10:24:44;;;;;;;22.17;15.70;;;8.40;99.90;;;;;;4969708;28;20393;-52
2022/01/04 10:27:34;;;;;;;19.85;15.20;;;8.40;99.90;;;;;;4969450;28;20471;-48
2022/01/04 10:30:20;;;;;;;23.70;15.52;;;8.40;99.90;;;;;;4968407;28;20392;-50
2022/01/04 10:32:52;;;;;;;24.00;15.60;;;8.50;99.90;;;;;;4968033;28;20395;-50
2022/01/04 10:35:48;;;;;;;21.60;15.52;;;8.40;99.90;;;;;;4969716;28;20414;-49
2022/01/04 10:38:28;;;;;;;20.17;14.80;;;8.40;99.90;;;;;;4970511;28;20392;-49
2022/01/04 10:41:02;;;;;;;19.58;14.48;;;8.40;99.90;;;;;;4975277;28;20553;-53
2022/01/04 10:43:30;;;;;;;21.67;16.13;;;8.40;99.90;;;;;;4975335;28;20415;-47
2022/01/04 10:45:57;;;;;;;24.05;17.25;;;8.40;99.90;;;;;;4976629;28;20410;-52
2022/01/04 10:48:26;;;;;;;27.65;17.13;;;8.30;99.90;;;;;;4976069;28;21097;-51
2022/01/04 10:51:05;;;;;;;26.38;18.20;;;8.20;99.90;;;;;;4977435;28;20769;-48
2022/01/04 10:53:35;;;;;;;10.00;8.48;;;8.20;99.90;;;;;;4975975;28;20399;-48
2022/01/04 10:56:06;;;;;;;11.63;7.93;;;7.90;99.90;;;;;;4976375;28;20396;-48
2022/01/04 10:58:47;;;;;;;11.38;4.85;;;7.80;99.90;;;;;;4974950;28;20784;-52
2022/01/04 11:01:17;;;;;;;9.35;4.65;;;7.50;99.90;;;;;;4976565;28;20380;-48
2022/01/04 11:03:46;;;;;;;9.07;4.30;;;7.50;99.90;;;;;;4974678;28;20420;-51
2022/01/04 11:06:13;;;;;;;7.83;4.00;;;7.40;99.90;;;;;;4974448;28;20396;-47
2022/01/04 11:08:40;;;;;;;10.57;5.20;;;7.40;99.90;;;;;;4973575;28;20975;-47
2022/01/04 11:11:05;;;;;;;10.00;5.07;;;7.50;99.90;;;;;;4974546;28;20388;-49
2022/01/04 11:13:31;;;;;;;13.75;6.40;;;7.50;99.90;;;;;;4976075;28;20463;-49
2022/01/04 11:15:57;;;;;;;13.93;7.90;;;7.60;99.90;;;;;;4972803;28;20431;-50
2022/01/04 11:18:24;;;;;;;14.10;8.35;;;7.60;99.90;;;;;;4972852;28;20411;-49
2022/01/04 11:20:51;;;;;;;13.93;8.90;;;7.60;99.90;;;;;;4971769;28;20396;-49
2022/01/04 11:23:21;;;;;;;16.70;9.70;;;7.60;99.90;;;;;;4972610;28;20449;-47
2022/01/04 11:25:48;;;;;;;14.75;10.90;;;7.60;99.90;;;;;;4973219;28;20388;-47
2022/01/04 11:28:15;;;;;;;17.90;11.65;;;7.70;99.90;;;;;;4972585;28;20395;-50
2022/01/04 11:31:05;;;;;;;16.92;10.45;;;7.70;99.90;;;;;;4970493;28;20488;-50
2022/01/04 11:33:43;;;;;;;13.93;9.23;;;7.70;99.90;;;;;;4969287;28;20389;-48
2022/01/04 11:36:09;;;;;;;13.60;8.73;;;7.60;99.90;;;;;;4970578;28;20384;-48
2022/01/04 11:38:37;;;;;;;13.30;8.13;;;7.60;99.90;;;;;;4970389;28;20403;-49
2022/01/04 11:41:04;;;;;;;9.65;7.18;;;7.60;99.90;;;;;;4969989;28;20427;-53
2022/01/04 11:43:36;;;;;;;9.30;6.23;;;7.60;99.90;;;;;;4969288;28;20416;-49
2022/01/04 11:46:02;;;;;;;8.65;5.60;;;7.60;99.90;;;;;;4970486;28;20479;-50
2022/01/04 11:48:37;;;;;;;8.80;4.80;;;7.60;99.90;;;;;;4972610;28;20424;-48
2022/01/04 11:51:05;;;;;;;7.35;3.70;;;7.60;99.90;;;;;;4968710;28;20423;-51
2022/01/04 11:53:33;;;;;;;5.57;2.40;;;7.50;99.90;;;;;;4970717;28;20395;-48
2022/01/04 11:56:08;;;;;;;5.22;2.20;;;7.50;99.90;;;;;;4970183;28;20392;-47
2022/01/04 11:58:50;;;;;;;5.95;2.22;;;7.50;99.90;;;;;;4969456;28;20944;-49
2022/01/04 12:01:23;;;;;;;4.80;2.13;;;7.40;99.90;;;;;;4968378;28;21014;-49
2022/01/04 12:03:50;;;;;;;9.37;2.07;;;7.40;99.90;;;;;;4967872;28;20510;-53
2022/01/04 12:06:21;;;;;;;5.50;1.80;;;7.30;99.90;;;;;;4952126;28;20467;-48
2022/01/04 12:08:54;;;;;;;4.57;1.95;;;7.40;99.90;;;;;;4966699;28;20392;-47
2022/01/04 12:11:36;;;;;;;4.43;1.98;;;7.40;99.90;;;;;;4967454;28;20479;-50
2022/01/04 12:14:03;;;;;;;6.70;2.35;;;7.40;99.90;;;;;;4966076;28;20462;-50
2022/01/04 12:33:35;;;;;;;6.63;2.20;;;7.40;99.90;;;;;;4968193;28;20387;-52
2022/01/04 12:36:01;;;;;;;5.35;2.13;;;7.30;99.90;;;;;;4969305;28;20409;-49
2022/01/04 12:38:27;;;;;;;7.80;2.63;;;7.30;99.90;;;;;;4970880;28;20391;-49
2022/01/04 12:40:53;;;;;;;7.03;2.90;;;7.30;99.90;;;;;;4969688;28;20478;-49
2022/01/04 12:43:19;;;;;;;5.75;2.60;;;7.30;99.90;;;;;;4970186;28;20497;-51
2022/01/04 12:45:59;;;;;;;7.80;2.43;;;7.30;99.90;;;;;;4970475;28;20386;-52
2022/01/04 12:48:48;;;;;;;5.13;1.45;;;7.30;99.90;;;;;;4953209;28;20398;-48
2022/01/04 12:51:26;;;;;;;4.55;1.23;;;7.20;99.90;;;;;;4970077;28;20379;-49
2022/01/04 12:53:54;;;;;;;2.10;0.80;;;7.10;99.90;;;;;;4969414;28;20394;-50
2022/01/04 12:56:20;;;;;;;3.28;1.08;;;7.10;99.90;;;;;;4969646;28;20402;-50
2022/01/04 12:58:46;;;;;;;2.57;1.00;;;7.10;99.90;;;;;;4987057;28;20402;-50
2022/01/04 13:01:13;;;;;;;5.87;1.53;;;7.10;99.90;;;;;;4970320;28;20449;-51
2022/01/04 13:03:39;;;;;;;3.13;0.93;;;7.20;99.90;;;;;;4970540;28;20411;-51
2022/01/04 13:06:06;;;;;;;4.15;1.20;;;7.20;99.90;;;;;;4955918;28;20398;-51
2022/01/04 13:08:35;;;;;;;2.95;1.10;;;7.40;99.90;;;;;;4972105;28;20399;-51
2022/01/04 13:11:08;;;;;;;2.13;1.10;;;7.40;99.90;;;;;;4990176;28;20418;-52
2022/01/04 13:13:35;;;;;;;3.33;1.10;;;7.40;99.90;;;;;;4975976;28;20688;-50
2022/01/04 13:16:30;;;;;;;2.73;0.97;;;7.40;99.90;;;;;;4992931;28;20474;-50
2022/01/04 13:19:16;;;;;;;3.60;0.90;;;7.30;99.90;;;;;;4960197;28;20514;-52
2022/01/04 13:21:53;;;;;;;1.90;1.00;;;7.20;99.90;;;;;;4976701;28;20401;-51
2022/01/04 13:24:49;;;;;;;1.43;0.93;;;7.10;99.90;;;;;;4976690;28;20544;-48
2022/01/04 13:27:36;;;;;;;1.10;0.90;;;7.10;99.90;;;;;;4956434;28;20395;-52
2022/01/04 13:30:21;;;;;;;2.60;1.10;;;7.10;99.90;;;;;;4976180;28;20398;-50
2022/01/04 13:32:56;;;;;;;1.85;1.30;;;7.00;99.90;;;;;;4975144;28;20787;-48
2022/01/04 13:35:30;;;;;;;3.10;1.90;;;6.90;99.90;;;;;;4973200;28;20420;-49
2022/01/04 13:37:59;;;;;;;2.83;2.00;;;6.90;99.90;;;;;;4972808;28;20437;-49
2022/01/04 13:40:28;;;;;;;3.08;1.90;;;6.80;99.90;;;;;;4955632;28;20633;-48
2022/01/04 13:43:05;;;;;;;2.15;1.88;;;6.70;99.90;;;;;;4972821;28;20643;-49
2022/01/04 13:45:55;;;;;;;2.20;2.00;;;6.60;99.90;;;;;;4970007;28;20423;-50
2022/01/04 13:48:27;;;;;;;2.88;2.58;;;6.60;99.90;;;;;;4972147;28;20388;-47
2022/01/04 13:50:54;;;;;;;3.15;2.20;;;6.60;99.90;;;;;;4970834;28;20482;-53
2022/01/04 13:53:21;;;;;;;4.32;2.63;;;6.50;99.90;;;;;;4971434;28;20423;-52
2022/01/04 13:55:54;;;;;;;2.10;1.90;;;6.60;99.90;;;;;;4970705;28;20400;-48
2022/01/04 13:58:35;;;;;;;2.40;2.10;;;6.60;99.90;;;;;;4971129;28;20454;-51
2022/01/04 14:01:32;;;;;;;2.30;2.10;;;6.60;99.90;;;;;;4969733;28;20696;-48
2022/01/04 14:04:15;;;;;;;3.58;2.13;;;6.70;99.90;;;;;;4970251;28;20412;-52
2022/01/04 14:06:58;;;;;;;4.30;1.75;;;6.70;99.90;;;;;;4971336;28;20423;-51
2022/01/04 14:09:35;;;;;;;1.40;1.30;;;6.70;99.90;;;;;;4972394;28;20458;-48
2022/01/04 14:12:13;;;;;;;1.53;1.23;;;6.70;99.90;;;;;;4971944;28;20469;-48
2022/01/04 14:14:46;;;;;;;2.22;1.40;;;6.70;99.90;;;;;;4976747;28;20391;-50
2022/01/04 14:17:14;;;;;;;1.10;1.00;;;6.70;99.90;;;;;;4970825;28;20539;-50
2022/01/04 14:19:49;;;;;;;0.73;0.73;;;6.60;99.90;;;;;;4966708;28;20495;-49
2022/01/04 14:22:24;;;;;;;2.50;0.57;;;6.70;99.90;;;;;;4967591;28;20463;-50
2022/01/04 14:24:51;;;;;;;0.77;0.60;;;6.60;99.90;;;;;;4968827;28;20399;-49
2022/01/04 14:27:24;;;;;;;0.50;0.50;;;6.60;99.90;;;;;;4969011;28;20400;-52
2022/01/04 14:29:58;;;;;;;0.45;0.40;;;6.70;99.90;;;;;;4969457;28;20380;-51
2022/01/04 14:32:37;;;;;;;0.50;0.50;;;6.70;99.90;;;;;;4968359;28;20475;-48